createdAt,value
2023-08-24T00:00:45.850Z,14.56
2023-08-24T00:03:12.527Z,14.57
2023-08-24T00:05:39.781Z,14.58
2023-08-24T00:08:10.448Z,14.64
2023-08-24T00:10:37.477Z,14.60
2023-08-24T00:13:04.324Z,14.64
2023-08-24T00:15:31.260Z,14.58
2023-08-24T00:17:58.031Z,14.58
2023-08-24T00:20:24.703Z,14.57
2023-08-24T00:22:51.316Z,14.32
2023-08-24T00:25:19.425Z,14.15
2023-08-24T00:27:46.163Z,14.20
2023-08-24T00:30:12.913Z,14.15
2023-08-24T00:32:39.621Z,14.19
2023-08-24T00:35:11.257Z,14.20
2023-08-24T00:37:38.682Z,14.15
2023-08-24T00:40:09.690Z,14.21
2023-08-24T00:42:43.149Z,14.28
2023-08-24T00:45:10.791Z,14.30
2023-08-24T00:47:38.864Z,14.37
2023-08-24T00:50:06.083Z,14.33
2023-08-24T00:52:33.676Z,14.31
2023-08-24T00:55:00.776Z,14.24
2023-08-24T00:57:28.431Z,14.22
2023-08-24T00:59:56.262Z,14.24
2023-08-24T01:02:23.084Z,14.31
2023-08-24T01:04:53.344Z,14.36
2023-08-24T01:07:20.253Z,14.32
2023-08-24T01:09:47.620Z,14.18
2023-08-24T01:12:14.282Z,13.84
2023-08-24T01:15:01.199Z,13.50
2023-08-24T01:17:30.273Z,13.53
2023-08-24T01:19:59.253Z,13.69
2023-08-24T01:22:28.682Z,13.85
2023-08-24T01:25:01.931Z,13.75
2023-08-24T01:27:30.429Z,13.78
2023-08-24T01:29:58.162Z,13.92
2023-08-24T01:32:25.737Z,13.98
2023-08-24T01:34:52.415Z,13.96
2023-08-24T01:37:19.874Z,13.89
2023-08-24T01:40:11.187Z,13.92
2023-08-24T01:42:46.547Z,14.03
2023-08-24T01:45:14.192Z,14.06
2023-08-24T01:47:42.732Z,14.07
2023-08-24T01:50:09.808Z,13.98
2023-08-24T01:52:36.607Z,13.96
2023-08-24T01:55:04.159Z,13.89
2023-08-24T01:57:30.873Z,13.87
2023-08-24T01:59:57.641Z,13.84
2023-08-24T02:02:24.917Z,13.88
2023-08-24T02:04:51.970Z,13.88
2023-08-24T02:07:18.585Z,13.89
2023-08-24T02:09:45.279Z,13.93
2023-08-24T02:12:12.428Z,13.90
2023-08-24T02:14:39.131Z,13.85
2023-08-24T02:17:05.915Z,13.78
2023-08-24T02:19:32.685Z,13.80
2023-08-24T02:21:59.884Z,13.68
2023-08-24T02:24:26.638Z,13.64
2023-08-24T02:26:53.237Z,13.60
2023-08-24T02:29:19.909Z,13.56
2023-08-24T02:31:46.524Z,13.58
2023-08-24T02:34:14.419Z,13.65
2023-08-24T02:36:41.031Z,13.55
2023-08-24T02:39:08.438Z,13.55
2023-08-24T02:41:35.694Z,13.66
2023-08-24T02:44:02.851Z,13.63
2023-08-24T02:46:29.809Z,13.63
2023-08-24T02:48:56.553Z,13.47
2023-08-24T02:51:23.831Z,13.45
2023-08-24T02:53:50.739Z,13.37
2023-08-24T02:56:17.523Z,13.31
2023-08-24T02:58:44.264Z,13.30
2023-08-24T03:01:10.891Z,13.27
2023-08-24T03:03:39.119Z,13.28
2023-08-24T03:06:06.907Z,13.27
2023-08-24T03:08:35.182Z,13.19
2023-08-24T03:11:02.213Z,13.18
2023-08-24T03:13:29.306Z,13.29
2023-08-24T03:15:56.072Z,13.35
2023-08-24T03:18:25.202Z,13.34
2023-08-24T03:20:52.038Z,13.33
2023-08-24T03:23:18.820Z,13.31
2023-08-24T03:25:45.558Z,13.21
2023-08-24T03:28:12.511Z,13.08
2023-08-24T03:30:40.288Z,13.08
2023-08-24T03:33:07.986Z,12.96
2023-08-24T03:35:35.197Z,12.99
2023-08-24T03:38:02.090Z,12.98
2023-08-24T03:40:28.817Z,13.04
2023-08-24T03:42:55.484Z,13.11
2023-08-24T03:45:22.487Z,13.00
2023-08-24T03:47:49.944Z,13.02
2023-08-24T03:50:17.082Z,12.97
2023-08-24T03:52:44.110Z,12.95
2023-08-24T03:55:11.517Z,12.92
2023-08-24T03:57:39.305Z,12.86
2023-08-24T04:00:08.344Z,12.79
2023-08-24T04:02:40.632Z,12.83
2023-08-24T04:05:08.021Z,12.88
2023-08-24T04:07:37.441Z,12.98
2023-08-24T04:10:05.996Z,12.98
2023-08-24T04:12:33.095Z,12.99
2023-08-24T04:14:59.851Z,12.97
2023-08-24T04:17:26.752Z,12.96
2023-08-24T04:19:53.788Z,12.86
2023-08-24T04:22:20.577Z,12.90
2023-08-24T04:24:47.201Z,12.92
2023-08-24T04:27:13.791Z,12.95
2023-08-24T04:29:40.400Z,12.89
2023-08-24T04:32:07.153Z,12.87
2023-08-24T04:34:33.753Z,12.79
2023-08-24T04:37:00.401Z,12.72
2023-08-24T04:39:27.510Z,12.54
2023-08-24T04:41:54.180Z,12.35
2023-08-24T04:44:20.853Z,12.45
2023-08-24T04:46:47.435Z,12.56
2023-08-24T04:49:14.038Z,12.56
2023-08-24T04:51:40.687Z,12.63
2023-08-24T04:54:07.320Z,12.69
2023-08-24T04:56:34.180Z,12.66
2023-08-24T04:59:02.098Z,12.73
2023-08-24T05:01:28.804Z,12.70
2023-08-24T05:03:55.553Z,12.80
2023-08-24T05:06:22.215Z,12.81
2023-08-24T05:08:49.084Z,12.77
2023-08-24T05:11:18.317Z,12.81
2023-08-24T05:13:45.049Z,12.88
2023-08-24T05:16:12.026Z,12.95
2023-08-24T05:18:38.778Z,12.99
2023-08-24T05:21:05.411Z,12.91
2023-08-24T05:23:32.706Z,13.01
2023-08-24T05:25:59.800Z,13.08
2023-08-24T05:28:29.859Z,13.12
2023-08-24T05:30:57.081Z,13.11
2023-08-24T05:33:24.356Z,13.20
2023-08-24T05:35:51.758Z,13.28
2023-08-24T05:38:18.566Z,13.34
2023-08-24T05:40:47.668Z,13.30
2023-08-24T05:43:14.274Z,13.34
2023-08-24T05:45:41.809Z,13.40
2023-08-24T05:48:08.843Z,13.39
2023-08-24T05:50:35.596Z,13.48
2023-08-24T05:53:02.252Z,13.60
2023-08-24T05:55:28.989Z,13.74
2023-08-24T05:57:55.609Z,13.78
2023-08-24T06:00:23.643Z,13.79
2023-08-24T06:02:50.340Z,13.78
2023-08-24T06:05:19.156Z,13.86
2023-08-24T06:07:46.932Z,13.92
2023-08-24T06:10:13.713Z,13.94
2023-08-24T06:12:40.331Z,14.03
2023-08-24T06:15:08.925Z,14.07
2023-08-24T06:17:36.682Z,14.14
2023-08-24T06:20:06.512Z,14.16
2023-08-24T06:22:33.927Z,14.18
2023-08-24T06:25:01.298Z,14.20
2023-08-24T06:27:27.978Z,14.20
2023-08-24T06:29:54.578Z,14.22
2023-08-24T06:32:21.237Z,14.02
2023-08-24T06:34:47.843Z,14.11
2023-08-24T06:37:14.476Z,14.19
2023-08-24T06:39:41.107Z,14.17
2023-08-24T06:42:07.775Z,14.22
2023-08-24T06:44:34.919Z,14.33
2023-08-24T06:47:04.419Z,14.41
2023-08-24T06:49:32.360Z,14.50
2023-08-24T06:51:58.969Z,14.54
2023-08-24T06:54:26.832Z,14.55
2023-08-24T06:56:55.079Z,14.53
2023-08-24T06:59:21.702Z,14.66
2023-08-24T07:01:48.589Z,14.56
2023-08-24T07:04:15.394Z,14.61
2023-08-24T07:06:43.718Z,14.63
2023-08-24T07:09:10.432Z,14.66
2023-08-24T07:11:37.037Z,14.60
2023-08-24T07:14:03.642Z,14.62
2023-08-24T07:16:30.364Z,14.66
2023-08-24T07:18:56.967Z,14.60
2023-08-24T07:21:23.585Z,14.58
2023-08-24T07:23:50.247Z,14.50
2023-08-24T07:26:16.923Z,14.58
2023-08-24T07:28:43.533Z,14.62
2023-08-24T07:31:11.918Z,14.63
2023-08-24T07:33:41.579Z,14.70
2023-08-24T07:36:08.171Z,14.80
2023-08-24T07:38:34.943Z,14.86
2023-08-24T07:41:01.712Z,14.94
2023-08-24T07:43:28.503Z,15.00
2023-08-24T07:45:56.084Z,15.04
2023-08-24T07:48:22.835Z,15.14
2023-08-24T07:50:49.430Z,15.22
2023-08-24T07:53:16.081Z,15.31
2023-08-24T07:55:43.635Z,15.36
2023-08-24T07:58:10.313Z,15.40
2023-08-24T08:00:36.941Z,15.50
2023-08-24T08:03:03.770Z,15.54
2023-08-24T08:05:30.467Z,15.65
2023-08-24T08:07:57.158Z,15.67
2023-08-24T08:10:23.780Z,15.68
2023-08-24T08:12:50.410Z,15.70
2023-08-24T08:15:17.021Z,15.76
2023-08-24T08:17:43.879Z,15.80
2023-08-24T08:20:11.166Z,15.92
2023-08-24T08:22:39.710Z,15.98
2023-08-24T08:25:07.245Z,16.05
2023-08-24T08:27:34.358Z,16.08
2023-08-24T08:30:01.233Z,16.15
2023-08-24T08:32:28.529Z,16.21
2023-08-24T08:34:58.024Z,16.17
2023-08-24T08:37:24.693Z,16.27
2023-08-24T08:39:51.341Z,16.30
2023-08-24T08:42:17.934Z,16.35
2023-08-24T08:44:46.476Z,16.46
2023-08-24T08:47:13.297Z,16.21
2023-08-24T08:49:40.376Z,16.51
2023-08-24T08:52:07.262Z,16.54
2023-08-24T08:54:36.715Z,16.60
2023-08-24T08:57:04.339Z,16.62
2023-08-24T08:59:31.623Z,16.73
2023-08-24T09:01:59.238Z,16.71
2023-08-24T09:04:26.390Z,16.72
2023-08-24T09:06:53.175Z,16.79
2023-08-24T09:09:19.905Z,16.77
2023-08-24T09:11:48.692Z,16.68
2023-08-24T09:14:15.657Z,16.66
2023-08-24T09:16:42.558Z,16.57
2023-08-24T09:19:11.849Z,16.53
2023-08-24T09:21:39.190Z,16.54
2023-08-24T09:24:06.824Z,16.61
2023-08-24T09:26:43.757Z,16.64
2023-08-24T09:29:14.641Z,16.70
2023-08-24T09:31:41.640Z,16.73
2023-08-24T09:34:08.485Z,16.77
2023-08-24T09:36:35.627Z,16.80
2023-08-24T09:39:05.704Z,16.83
2023-08-24T09:41:39.289Z,16.85
2023-08-24T09:44:06.709Z,16.85
2023-08-24T09:46:33.312Z,16.91
2023-08-24T09:49:01.699Z,16.93
2023-08-24T09:51:28.850Z,16.93
2023-08-24T09:53:58.099Z,16.97
2023-08-24T09:56:26.480Z,17.05
2023-08-24T09:58:54.946Z,17.14
2023-08-24T10:01:22.619Z,17.18
2023-08-24T10:03:52.809Z,17.22
2023-08-24T10:06:21.334Z,17.29
2023-08-24T10:09:02.207Z,17.31
2023-08-24T10:11:29.815Z,17.33
2023-08-24T10:14:04.119Z,17.37
2023-08-24T10:16:31.432Z,17.47
2023-08-24T10:18:58.469Z,17.52
2023-08-24T10:21:28.236Z,17.53
2023-08-24T10:23:57.523Z,17.54
2023-08-24T10:26:24.718Z,17.54
2023-08-24T10:28:52.577Z,17.58
2023-08-24T10:31:19.343Z,17.58
2023-08-24T10:33:50.147Z,17.54
2023-08-24T10:36:17.979Z,17.53
2023-08-24T10:38:44.815Z,17.43
2023-08-24T10:41:15.991Z,17.43
2023-08-24T10:43:49.299Z,17.42
2023-08-24T10:46:17.890Z,17.42
2023-08-24T10:48:47.724Z,17.44
2023-08-24T10:51:14.394Z,17.43
2023-08-24T10:53:41.717Z,17.46
2023-08-24T10:56:12.686Z,17.44
2023-08-24T10:58:39.400Z,17.48
2023-08-24T11:01:06.050Z,17.52
2023-08-24T11:03:34.027Z,17.53
2023-08-24T11:06:00.753Z,17.57
2023-08-24T11:08:46.149Z,16.50
2023-08-24T11:11:19.569Z,17.52
2023-08-24T11:14:04.727Z,17.63
2023-08-24T11:16:42.469Z,17.58
2023-08-24T11:19:09.732Z,17.63
2023-08-24T11:21:36.537Z,17.61
2023-08-24T11:24:03.459Z,17.58
2023-08-24T11:26:32.096Z,17.66
2023-08-24T11:29:00.610Z,17.61
2023-08-24T11:31:27.700Z,17.62
2023-08-24T11:33:57.424Z,17.60
2023-08-24T11:36:27.231Z,17.59
2023-08-24T11:38:57.009Z,17.65
2023-08-24T11:41:23.640Z,17.72
2023-08-24T11:43:52.246Z,17.77
2023-08-24T11:46:19.590Z,17.81
2023-08-24T11:48:46.667Z,17.78
2023-08-24T11:51:14.150Z,17.83
2023-08-24T11:53:43.087Z,17.88
2023-08-24T11:56:10.923Z,17.85
2023-08-24T11:58:43.911Z,17.89
2023-08-24T12:01:15.049Z,17.95
2023-08-24T12:03:42.088Z,17.97
2023-08-24T12:06:12.728Z,18.01
2023-08-24T12:08:40.627Z,17.99
2023-08-24T12:11:20.459Z,18.02
2023-08-24T12:13:51.371Z,18.06
2023-08-24T12:16:18.766Z,18.05
2023-08-24T12:18:49.787Z,18.05
2023-08-24T12:21:16.547Z,18.01
2023-08-24T12:23:43.208Z,17.97
2023-08-24T12:26:17.950Z,17.95
2023-08-24T12:28:44.639Z,17.99
2023-08-24T12:31:15.221Z,17.96
2023-08-24T12:33:42.075Z,17.95
2023-08-24T12:36:08.647Z,17.91
2023-08-24T12:38:36.834Z,17.94
2023-08-24T12:41:03.489Z,17.93
2023-08-24T12:43:30.122Z,17.65
2023-08-24T12:45:56.725Z,17.93
2023-08-24T12:48:23.499Z,17.90
2023-08-24T12:50:50.225Z,17.90
2023-08-24T12:53:17.044Z,17.92
2023-08-24T12:55:43.978Z,17.94
2023-08-24T12:58:10.662Z,17.95
2023-08-24T13:00:37.389Z,17.95
2023-08-24T13:03:04.290Z,17.70
2023-08-24T13:05:32.670Z,18.03
2023-08-24T13:07:59.701Z,18.04
2023-08-24T13:10:26.463Z,18.07
2023-08-24T13:12:53.189Z,18.14
2023-08-24T13:15:19.786Z,18.23
2023-08-24T13:17:46.484Z,18.32
2023-08-24T13:20:13.064Z,18.39
2023-08-24T13:22:39.766Z,18.36
2023-08-24T13:25:06.583Z,18.51
2023-08-24T13:27:33.171Z,18.60
2023-08-24T13:30:03.032Z,18.59
2023-08-24T13:32:30.466Z,18.64
2023-08-24T13:34:57.202Z,18.71
2023-08-24T13:37:26.401Z,18.67
2023-08-24T13:39:53.123Z,18.68
2023-08-24T13:42:19.850Z,18.62
2023-08-24T13:44:47.345Z,18.65
2023-08-24T13:47:13.990Z,18.69
2023-08-24T13:49:41.420Z,18.63
2023-08-24T13:52:08.461Z,18.62
2023-08-24T13:54:35.288Z,18.59
2023-08-24T13:57:02.660Z,18.61
2023-08-24T13:59:29.760Z,18.57
2023-08-24T14:01:56.746Z,18.60
2023-08-24T14:04:23.362Z,18.60
2023-08-24T14:06:50.092Z,18.60
2023-08-24T14:09:17.150Z,18.67
2023-08-24T14:11:43.903Z,18.67
2023-08-24T14:14:11.221Z,18.69
2023-08-24T14:16:37.996Z,18.72
2023-08-24T14:19:05.815Z,18.71
2023-08-24T14:21:44.135Z,18.70
2023-08-24T14:24:11.820Z,18.80
2023-08-24T14:26:40.549Z,18.82
2023-08-24T14:29:07.436Z,18.79
2023-08-24T14:31:34.123Z,18.70
2023-08-24T14:34:07.024Z,18.71
2023-08-24T14:36:36.140Z,18.71
2023-08-24T14:39:14.832Z,18.71
2023-08-24T14:41:41.613Z,18.71
2023-08-24T14:44:08.495Z,18.68
2023-08-24T14:46:38.410Z,18.59
2023-08-24T14:49:06.396Z,18.59
2023-08-24T14:51:38.274Z,18.61
2023-08-24T14:54:04.929Z,18.50
2023-08-24T14:56:34.595Z,18.50
2023-08-24T14:59:02.229Z,18.50
2023-08-24T15:01:34.152Z,18.54
2023-08-24T15:04:02.292Z,18.51
2023-08-24T15:06:31.441Z,18.50
2023-08-24T15:08:59.434Z,18.54
2023-08-24T15:11:26.102Z,18.54
2023-08-24T15:13:52.765Z,18.56
2023-08-24T15:16:19.939Z,18.60
2023-08-24T15:18:46.658Z,18.63
2023-08-24T15:21:18.197Z,18.52
2023-08-24T15:23:44.896Z,18.56
2023-08-24T15:26:11.557Z,18.59
2023-08-24T15:28:39.121Z,18.58
2023-08-24T15:31:06.042Z,18.59
2023-08-24T15:33:36.941Z,18.62
2023-08-24T15:36:03.948Z,18.60
2023-08-24T15:38:31.788Z,18.55
2023-08-24T15:40:58.445Z,18.50
2023-08-24T15:43:25.032Z,18.47
2023-08-24T15:45:54.460Z,18.43
2023-08-24T15:48:21.091Z,18.39
2023-08-24T15:50:47.721Z,18.40
2023-08-24T15:53:14.428Z,18.41
2023-08-24T15:55:41.380Z,18.37
2023-08-24T15:58:08.038Z,18.39
2023-08-24T16:00:34.815Z,18.41
2023-08-24T16:03:01.418Z,18.42
2023-08-24T16:05:28.562Z,18.43
2023-08-24T16:07:55.845Z,18.43
2023-08-24T16:10:22.654Z,18.41
2023-08-24T16:12:49.839Z,18.41
2023-08-24T16:15:16.536Z,18.40
2023-08-24T16:17:43.257Z,18.40
2023-08-24T16:20:11.117Z,18.37
2023-08-24T16:22:38.188Z,18.39
2023-08-24T16:25:05.510Z,18.41
2023-08-24T16:27:32.276Z,18.40
2023-08-24T16:29:58.893Z,18.37
2023-08-24T16:32:25.717Z,18.40
2023-08-24T16:34:52.898Z,18.41
2023-08-24T16:37:19.531Z,18.40
2023-08-24T16:39:46.282Z,18.42
2023-08-24T16:42:12.960Z,18.41
2023-08-24T16:44:39.630Z,18.41
2023-08-24T16:47:06.377Z,18.42
2023-08-24T16:49:34.607Z,18.44
2023-08-24T16:52:01.714Z,18.43
2023-08-24T16:54:28.352Z,18.44
2023-08-24T16:56:55.026Z,18.43
2023-08-24T16:59:21.649Z,18.44
2023-08-24T17:01:48.476Z,18.45
2023-08-24T17:04:15.326Z,18.45
2023-08-24T17:06:42.303Z,18.46
2023-08-24T17:09:09.080Z,18.46
2023-08-24T17:11:35.805Z,18.43
2023-08-24T17:14:02.409Z,18.40
2023-08-24T17:16:29.271Z,18.42
2023-08-24T17:18:55.989Z,18.36
2023-08-24T17:21:22.752Z,18.40
2023-08-24T17:23:49.488Z,18.35
2023-08-24T17:26:16.112Z,18.29
2023-08-24T17:28:42.682Z,18.27
2023-08-24T17:31:10.229Z,18.26
2023-08-24T17:33:36.850Z,18.25
2023-08-24T17:36:03.938Z,18.26
2023-08-24T17:38:32.752Z,18.25
2023-08-24T17:41:03.878Z,18.23
2023-08-24T17:43:31.207Z,18.21
2023-08-24T17:45:57.793Z,18.24
2023-08-24T17:48:24.412Z,16.12
2023-08-24T17:50:54.765Z,18.11
2023-08-24T17:53:26.901Z,18.07
2023-08-24T17:55:54.147Z,18.03
2023-08-24T17:58:21.409Z,17.98
2023-08-24T18:00:48.141Z,17.93
2023-08-24T18:03:14.784Z,17.89
2023-08-24T18:05:41.982Z,17.86
2023-08-24T18:08:09.506Z,17.86
2023-08-24T18:10:36.373Z,17.87
2023-08-24T18:13:03.871Z,17.82
2023-08-24T18:15:34.584Z,17.79
2023-08-24T18:18:01.341Z,17.82
2023-08-24T18:20:28.726Z,17.77
2023-08-24T18:22:55.469Z,17.76
2023-08-24T18:25:23.221Z,17.76
2023-08-24T18:27:50.366Z,17.78
2023-08-24T18:30:17.004Z,17.75
2023-08-24T18:32:43.795Z,17.71
2023-08-24T18:35:10.556Z,17.70
2023-08-24T18:37:37.220Z,17.72
2023-08-24T18:40:07.197Z,17.72
2023-08-24T18:42:34.029Z,17.61
2023-08-24T18:45:00.605Z,17.58
2023-08-24T18:47:27.654Z,17.56
2023-08-24T18:49:54.439Z,17.53
2023-08-24T18:52:21.244Z,17.53
2023-08-24T18:54:47.925Z,17.55
2023-08-24T18:57:14.777Z,17.55
2023-08-24T18:59:41.502Z,17.52
2023-08-24T19:02:08.242Z,17.48
2023-08-24T19:04:34.859Z,17.47
2023-08-24T19:07:01.657Z,17.48
2023-08-24T19:09:28.262Z,17.52
2023-08-24T19:11:54.980Z,17.50
2023-08-24T19:14:21.564Z,17.44
2023-08-24T19:16:48.183Z,17.47
2023-08-24T19:19:15.109Z,17.45
2023-08-24T19:21:42.464Z,17.44
2023-08-24T19:24:09.968Z,17.48
2023-08-24T19:26:36.644Z,17.48
2023-08-24T19:29:09.176Z,17.47
2023-08-24T19:31:37.565Z,17.44
2023-08-24T19:34:05.988Z,17.45
2023-08-24T19:36:32.668Z,17.44
2023-08-24T19:38:59.230Z,17.43
2023-08-24T19:41:26.322Z,17.40
2023-08-24T19:43:53.060Z,17.39
2023-08-24T19:46:19.697Z,17.36
2023-08-24T19:48:46.393Z,17.35
2023-08-24T19:51:12.980Z,17.37
2023-08-24T19:53:39.635Z,17.37
2023-08-24T19:56:06.170Z,17.31
2023-08-24T19:58:32.835Z,17.29
2023-08-24T20:00:59.482Z,17.31
2023-08-24T20:03:27.038Z,17.27
2023-08-24T20:05:54.693Z,17.29
2023-08-24T20:08:21.293Z,17.29
2023-08-24T20:10:47.846Z,17.23
2023-08-24T20:13:14.450Z,17.20
2023-08-24T20:15:41.111Z,17.16
2023-08-24T20:18:08.630Z,17.18
2023-08-24T20:20:35.403Z,17.17
2023-08-24T20:23:02.301Z,17.17
2023-08-24T20:25:29.057Z,17.14
2023-08-24T20:27:56.044Z,17.15
2023-08-24T20:30:22.868Z,17.18
2023-08-24T20:32:49.506Z,17.08
2023-08-24T20:35:16.198Z,17.03
2023-08-24T20:37:42.853Z,16.94
2023-08-24T20:40:09.649Z,16.90
2023-08-24T20:42:36.303Z,16.89
2023-08-24T20:45:03.703Z,16.94
2023-08-24T20:47:30.483Z,16.95
2023-08-24T20:49:57.122Z,16.93
2023-08-24T20:52:23.832Z,16.98
2023-08-24T20:54:51.480Z,17.00
2023-08-24T20:57:18.154Z,17.00
2023-08-24T20:59:44.803Z,17.03
2023-08-24T21:02:11.515Z,17.06
2023-08-24T21:04:38.216Z,17.06
2023-08-24T21:07:04.958Z,17.07
2023-08-24T21:09:31.580Z,17.08
2023-08-24T21:11:58.476Z,17.08
2023-08-24T21:14:25.109Z,17.04
2023-08-24T21:16:51.809Z,17.04
2023-08-24T21:19:18.441Z,17.03
2023-08-24T21:21:45.317Z,17.05
2023-08-24T21:24:11.864Z,17.02
2023-08-24T21:26:38.567Z,17.02
2023-08-24T21:29:05.189Z,16.96
2023-08-24T21:31:31.823Z,16.98
2023-08-24T21:33:58.405Z,16.99
2023-08-24T21:36:25.063Z,16.95
2023-08-24T21:38:51.735Z,16.95
2023-08-24T21:41:18.960Z,16.97
2023-08-24T21:43:45.600Z,16.96
2023-08-24T21:46:12.585Z,16.94
2023-08-24T21:48:39.200Z,16.96
2023-08-24T21:51:05.789Z,16.88
2023-08-24T21:53:32.412Z,16.87
2023-08-24T21:55:59.035Z,16.89
2023-08-24T21:58:25.632Z,16.93
2023-08-24T22:01:11.779Z,16.92
2023-08-24T22:03:57.234Z,16.85
2023-08-24T22:06:24.085Z,16.67
2023-08-24T22:08:50.921Z,16.46
2023-08-24T22:11:17.655Z,16.40
2023-08-24T22:13:44.389Z,16.30
2023-08-24T22:16:11.052Z,16.39
2023-08-24T22:18:37.708Z,16.45
2023-08-24T22:21:04.377Z,16.52
2023-08-24T22:23:31.031Z,16.50
2023-08-24T22:25:58.214Z,16.45
2023-08-24T22:28:24.843Z,16.48
2023-08-24T22:30:51.786Z,16.46
2023-08-24T22:33:20.496Z,16.46
2023-08-24T22:35:47.194Z,16.48
2023-08-24T22:38:14.014Z,16.52
2023-08-24T22:40:40.758Z,16.60
2023-08-24T22:43:07.374Z,16.58
2023-08-24T22:45:38.629Z,16.50
2023-08-24T22:48:05.768Z,16.35
2023-08-24T22:50:32.732Z,16.28
2023-08-24T22:52:59.416Z,16.28
2023-08-24T22:55:26.033Z,16.27
2023-08-24T22:57:52.925Z,16.19
2023-08-24T23:00:19.718Z,16.13
2023-08-24T23:02:46.640Z,16.13
2023-08-24T23:05:13.241Z,16.13
2023-08-24T23:07:39.947Z,16.18
2023-08-24T23:10:07.155Z,16.23
2023-08-24T23:12:33.868Z,16.26
2023-08-24T23:15:00.467Z,16.34
2023-08-24T23:17:27.117Z,16.40
2023-08-24T23:19:54.153Z,16.48
2023-08-24T23:22:20.878Z,16.53
2023-08-24T23:24:51.125Z,16.53
2023-08-24T23:27:18.714Z,16.52
2023-08-24T23:29:45.389Z,16.51
2023-08-24T23:32:11.996Z,16.53
2023-08-24T23:34:38.622Z,16.52
2023-08-24T23:37:06.601Z,16.47
2023-08-24T23:39:33.333Z,16.52
2023-08-24T23:42:00.062Z,16.53
2023-08-24T23:44:26.859Z,16.57
2023-08-24T23:46:53.831Z,16.59
2023-08-24T23:49:20.896Z,16.59
2023-08-24T23:51:47.579Z,16.57
2023-08-24T23:54:14.429Z,16.44
2023-08-24T23:56:41.031Z,16.45
2023-08-24T23:59:07.955Z,16.40
